createdAt,value
2022-12-04T00:03:01.173Z,17.57
2022-12-04T00:06:29.122Z,16.83
2022-12-04T00:09:41.086Z,17.90
2022-12-04T00:12:54.149Z,18.67
2022-12-04T00:16:06.175Z,16.00
2022-12-04T00:19:36.190Z,15.90
2022-12-04T00:22:36.180Z,16.77
2022-12-04T00:25:48.259Z,18.43
2022-12-04T00:29:00.163Z,16.50
2022-12-04T00:32:15.291Z,16.65
2022-12-04T00:35:29.158Z,17.00
2022-12-04T00:38:45.243Z,17.00
2022-12-04T00:41:57.183Z,17.50
2022-12-04T00:45:09.219Z,15.77
2022-12-04T00:48:13.239Z,17.35
2022-12-04T00:51:38.385Z,17.13
2022-12-04T00:54:38.299Z,17.65
2022-12-04T00:57:50.252Z,18.47
2022-12-04T01:01:02.463Z,17.20
2022-12-04T01:04:14.320Z,17.00
2022-12-04T01:07:27.355Z,17.73
2022-12-04T01:10:39.357Z,18.30
2022-12-04T01:13:39.282Z,17.20
2022-12-04T01:17:04.425Z,19.17
2022-12-04T01:20:16.384Z,17.67
2022-12-04T01:23:42.436Z,16.77
2022-12-04T01:26:42.412Z,19.30
2022-12-04T01:29:54.761Z,16.00
2022-12-04T01:32:57.448Z,17.50
2022-12-04T01:36:21.388Z,18.43
2022-12-04T01:39:34.460Z,19.37
2022-12-04T01:42:58.467Z,18.75
2022-12-04T01:46:10.567Z,19.35
2022-12-04T01:49:34.476Z,17.07
2022-12-04T01:52:46.428Z,18.30
2022-12-04T01:56:12.446Z,17.90
2022-12-04T01:59:27.425Z,17.45
2022-12-04T02:02:51.541Z,19.63
2022-12-04T02:06:03.558Z,17.97
2022-12-04T02:09:03.502Z,20.83
2022-12-04T02:12:30.475Z,18.23
2022-12-04T02:15:42.543Z,20.07
2022-12-04T02:19:11.561Z,19.33
2022-12-04T02:22:23.587Z,17.75
2022-12-04T02:25:48.510Z,19.37
2022-12-04T02:29:02.553Z,18.87
2022-12-04T02:32:27.564Z,17.40
2022-12-04T02:35:39.626Z,17.63
2022-12-04T02:39:03.622Z,17.80
2022-12-04T02:42:16.609Z,18.25
2022-12-04T02:45:42.728Z,19.80
2022-12-04T02:48:57.645Z,18.50
2022-12-04T02:52:22.637Z,19.13
2022-12-04T02:55:34.590Z,19.70
2022-12-04T02:58:58.609Z,18.60
2022-12-04T03:02:11.771Z,20.30
2022-12-04T03:05:35.718Z,17.77
2022-12-04T03:08:47.719Z,18.50
2022-12-04T03:12:11.700Z,19.57
2022-12-04T03:15:23.672Z,19.20
2022-12-04T03:18:48.759Z,19.03
2022-12-04T03:22:00.773Z,18.00
2022-12-04T03:25:24.742Z,18.57
2022-12-04T03:28:36.780Z,18.40
2022-12-04T03:32:02.784Z,18.53
2022-12-04T03:35:16.851Z,17.63
2022-12-04T03:38:40.738Z,17.27
2022-12-04T03:41:53.740Z,19.77
2022-12-04T03:45:24.810Z,19.13
2022-12-04T03:48:37.843Z,17.53
2022-12-04T03:52:06.782Z,20.75
2022-12-04T03:55:18.788Z,20.27
2022-12-04T03:58:42.859Z,18.87
2022-12-04T04:01:54.825Z,18.63
2022-12-04T04:05:19.845Z,19.87
2022-12-04T04:08:42.827Z,18.47
2022-12-04T04:12:06.861Z,18.85
2022-12-04T04:15:25.851Z,19.00
2022-12-04T04:18:58.602Z,18.43
2022-12-04T04:22:16.315Z,19.13
2022-12-04T04:25:41.977Z,19.47
2022-12-04T04:28:54.920Z,18.07
2022-12-04T04:32:18.925Z,17.55
2022-12-04T04:35:30.907Z,18.87
2022-12-04T04:38:54.974Z,18.97
2022-12-04T04:42:08.956Z,19.20
2022-12-04T04:45:32.952Z,18.70
2022-12-04T04:48:44.929Z,19.53
2022-12-04T04:52:09.051Z,19.45
2022-12-04T04:55:21.034Z,19.70
2022-12-04T04:58:47.027Z,19.25
2022-12-04T05:02:00.063Z,18.33
2022-12-04T05:05:26.032Z,18.57
2022-12-04T05:08:26.018Z,17.40
2022-12-04T05:11:38.065Z,18.80
2022-12-04T05:14:55.059Z,18.60
2022-12-04T05:18:08.066Z,18.45
2022-12-04T05:21:11.068Z,17.35
2022-12-04T05:24:23.119Z,18.73
2022-12-04T05:27:23.083Z,17.70
2022-12-04T05:30:49.229Z,17.87
2022-12-04T05:33:49.192Z,18.60
2022-12-04T05:37:01.126Z,17.73
2022-12-04T05:40:01.197Z,18.33
2022-12-04T05:43:14.177Z,18.50
2022-12-04T05:46:28.216Z,18.73
2022-12-04T05:49:55.360Z,18.67
2022-12-04T05:52:55.171Z,18.37
2022-12-04T05:56:20.183Z,18.80
2022-12-04T05:59:20.183Z,19.10
2022-12-04T06:02:45.242Z,18.30
2022-12-04T06:06:10.186Z,20.50
2022-12-04T06:09:22.271Z,18.80
2022-12-04T06:12:34.260Z,18.63
2022-12-04T06:15:34.262Z,17.45
2022-12-04T06:19:00.305Z,18.20
2022-12-04T06:22:12.309Z,17.20
2022-12-04T06:25:27.314Z,18.07
2022-12-04T06:28:27.302Z,17.65
2022-12-04T06:31:51.384Z,16.37
2022-12-04T06:35:05.429Z,18.85
2022-12-04T06:38:17.344Z,17.85
2022-12-04T06:41:29.308Z,17.55
2022-12-04T06:44:41.431Z,17.43
2022-12-04T06:47:41.408Z,19.23
2022-12-04T06:51:07.418Z,17.80
2022-12-04T06:54:19.503Z,17.70
2022-12-04T06:57:31.367Z,18.03
2022-12-04T07:00:32.359Z,16.50
2022-12-04T07:03:50.785Z,16.97
2022-12-04T07:06:58.414Z,18.13
2022-12-04T07:10:10.411Z,16.80
2022-12-04T07:13:22.453Z,16.27
2022-12-04T07:16:46.546Z,16.93
2022-12-04T07:19:46.466Z,16.27
2022-12-04T07:23:12.441Z,16.60
2022-12-04T07:26:28.416Z,15.77
2022-12-04T07:29:40.489Z,18.63
2022-12-04T07:32:40.532Z,16.95
2022-12-04T07:35:52.527Z,17.23
2022-12-04T07:39:05.514Z,16.20
2022-12-04T07:42:23.850Z,16.80
2022-12-04T07:45:30.745Z,16.03
2022-12-04T07:48:54.640Z,17.97
2022-12-04T07:51:54.569Z,15.77
2022-12-04T07:55:23.293Z,15.95
2022-12-04T07:58:32.628Z,18.00
2022-12-04T08:01:56.704Z,17.87
2022-12-04T08:05:08.571Z,16.83
2022-12-04T08:08:08.654Z,16.97
2022-12-04T08:11:36.579Z,17.30
2022-12-04T08:14:36.672Z,17.87
2022-12-04T08:17:49.592Z,17.27
2022-12-04T08:20:49.714Z,18.60
2022-12-04T08:24:13.714Z,16.17
2022-12-04T08:27:27.746Z,16.80
2022-12-04T08:30:51.712Z,17.57
2022-12-04T08:34:03.661Z,17.90
2022-12-04T08:37:27.691Z,16.10
2022-12-04T08:40:28.771Z,15.85
2022-12-04T08:43:55.649Z,16.70
2022-12-04T08:46:55.761Z,17.03
2022-12-04T08:50:09.687Z,16.67
2022-12-04T08:53:21.736Z,16.40
2022-12-04T08:56:21.773Z,16.73
2022-12-04T08:59:48.740Z,15.47
2022-12-04T09:02:48.792Z,16.97
2022-12-04T09:06:12.834Z,17.27
2022-12-04T09:09:12.868Z,17.30
2022-12-04T09:12:24.916Z,16.37
2022-12-04T09:15:38.863Z,16.90
2022-12-04T09:19:02.856Z,17.80
2022-12-04T09:22:06.801Z,16.60
2022-12-04T09:25:19.814Z,17.70
2022-12-04T09:28:19.873Z,16.87
2022-12-04T09:31:44.869Z,18.23
2022-12-04T09:34:49.587Z,18.10
2022-12-04T09:37:56.834Z,18.57
2022-12-04T09:41:09.814Z,17.77
2022-12-04T09:44:37.954Z,16.60
2022-12-04T09:47:51.959Z,17.95
2022-12-04T09:51:15.883Z,16.93
2022-12-04T09:54:27.968Z,17.50
2022-12-04T09:57:58.434Z,19.20
2022-12-04T10:01:17.907Z,16.33
2022-12-04T10:04:43.949Z,16.37
2022-12-04T10:07:57.099Z,16.87
2022-12-04T10:11:27.705Z,17.60
2022-12-04T10:14:41.992Z,16.40
2022-12-04T10:18:10.981Z,15.85
2022-12-04T10:21:26.969Z,16.20
2022-12-04T10:24:53.071Z,16.15
2022-12-04T10:28:05.052Z,16.23
2022-12-04T10:31:32.119Z,15.05
2022-12-04T10:34:45.806Z,16.27
2022-12-04T10:38:10.092Z,15.95
2022-12-04T10:41:23.072Z,15.60
2022-12-04T10:44:35.139Z,15.70
2022-12-04T10:47:47.137Z,15.73
2022-12-04T10:51:11.089Z,15.77
2022-12-04T10:54:25.128Z,16.60
2022-12-04T10:57:49.185Z,16.10
2022-12-04T11:00:49.184Z,15.07
2022-12-04T11:04:13.217Z,13.65
2022-12-04T11:07:26.180Z,14.40
2022-12-04T11:10:53.161Z,14.67
2022-12-04T11:14:05.152Z,13.05
2022-12-04T11:17:29.180Z,15.03
2022-12-04T11:20:46.984Z,13.23
2022-12-04T11:24:08.218Z,14.07
2022-12-04T11:27:24.243Z,13.40
2022-12-04T11:30:49.280Z,12.45
2022-12-04T11:34:05.254Z,12.25
2022-12-04T11:37:29.294Z,12.23
2022-12-04T11:40:41.271Z,11.43
2022-12-04T11:44:07.255Z,11.05
2022-12-04T11:47:17.200Z,10.80
2022-12-04T11:50:41.419Z,10.77
2022-12-04T11:53:54.304Z,11.10
2022-12-04T11:57:20.302Z,11.80
2022-12-04T12:00:37.351Z,11.05
2022-12-04T12:04:01.348Z,11.80
2022-12-04T12:07:16.353Z,10.83
2022-12-04T12:10:44.597Z,10.80
2022-12-04T12:13:53.358Z,12.20
2022-12-04T12:17:21.348Z,10.63
2022-12-04T12:20:35.358Z,10.37
2022-12-04T12:24:06.356Z,10.93
2022-12-04T12:27:19.422Z,11.47
2022-12-04T12:30:43.411Z,11.10
2022-12-04T12:33:57.453Z,11.40
2022-12-04T12:37:21.513Z,11.63
2022-12-04T12:40:36.414Z,12.73
2022-12-04T12:44:01.467Z,10.97
2022-12-04T12:47:16.517Z,11.37
2022-12-04T12:50:42.445Z,13.13
2022-12-04T12:53:54.499Z,11.33
2022-12-04T12:57:18.470Z,12.03
2022-12-04T13:00:30.488Z,12.37
2022-12-04T13:03:55.492Z,11.50
2022-12-04T13:07:09.477Z,11.90
2022-12-04T13:10:37.504Z,11.20
2022-12-04T13:13:49.595Z,11.17
2022-12-04T13:17:14.529Z,12.90
2022-12-04T13:20:26.589Z,11.27
2022-12-04T13:23:58.586Z,11.23
2022-12-04T13:27:11.615Z,12.27
2022-12-04T13:30:28.567Z,12.50
2022-12-04T13:33:49.637Z,11.20
2022-12-04T13:37:17.675Z,13.17
2022-12-04T13:40:41.596Z,11.83
2022-12-04T13:44:10.615Z,10.97
2022-12-04T13:47:22.624Z,12.95
2022-12-04T13:50:50.630Z,12.30
2022-12-04T13:54:02.671Z,11.83
2022-12-04T13:57:45.726Z,12.90
2022-12-04T14:00:57.751Z,12.20
2022-12-04T14:04:09.670Z,14.27
2022-12-04T14:07:21.684Z,11.55
2022-12-04T14:10:49.741Z,12.40
2022-12-04T14:14:08.355Z,12.83
2022-12-04T14:17:39.704Z,11.87
2022-12-04T14:20:51.787Z,11.53
2022-12-04T14:24:15.799Z,12.70
2022-12-04T14:27:28.783Z,13.53
2022-12-04T14:30:54.834Z,12.00
2022-12-04T14:34:07.734Z,13.25
2022-12-04T14:37:31.790Z,12.90
2022-12-04T14:40:47.790Z,13.67
2022-12-04T14:44:11.870Z,14.30
2022-12-04T14:47:25.779Z,13.80
2022-12-04T14:50:51.828Z,11.93
2022-12-04T14:54:04.870Z,13.00
2022-12-04T14:57:31.892Z,13.23
2022-12-04T15:00:44.816Z,13.53
2022-12-04T15:04:10.957Z,13.73
2022-12-04T15:07:22.882Z,13.50
2022-12-04T15:10:52.720Z,13.70
2022-12-04T15:14:04.925Z,14.30
2022-12-04T15:17:28.904Z,12.97
2022-12-04T15:20:42.904Z,12.97
2022-12-04T15:24:09.958Z,13.17
2022-12-04T15:27:21.891Z,12.45
2022-12-04T15:30:46.109Z,13.50
2022-12-04T15:33:57.980Z,13.47
2022-12-04T15:37:24.013Z,12.60
2022-12-04T15:40:37.030Z,12.05
2022-12-04T15:44:04.042Z,14.53
2022-12-04T15:47:16.101Z,15.43
2022-12-04T15:50:42.035Z,14.13
2022-12-04T15:53:56.040Z,13.50
2022-12-04T15:57:24.044Z,14.00
2022-12-04T16:00:47.035Z,13.07
2022-12-04T16:04:11.071Z,13.40
2022-12-04T16:07:11.028Z,13.67
2022-12-04T16:10:46.088Z,13.90
2022-12-04T16:13:58.106Z,13.10
2022-12-04T16:17:22.054Z,12.50
2022-12-04T16:20:35.144Z,12.77
2022-12-04T16:23:47.088Z,12.07
2022-12-04T16:27:01.173Z,13.93
2022-12-04T16:30:14.115Z,12.97
2022-12-04T16:33:14.108Z,12.25
2022-12-04T16:36:27.197Z,11.90
2022-12-04T16:39:41.489Z,11.47
2022-12-04T16:43:04.222Z,11.63
2022-12-04T16:46:16.242Z,12.07
2022-12-04T16:49:28.199Z,13.15
2022-12-04T16:52:40.269Z,12.53
2022-12-04T16:55:54.213Z,11.90
2022-12-04T16:59:11.714Z,11.87
2022-12-04T17:02:31.214Z,12.60
2022-12-04T17:05:43.248Z,12.30
2022-12-04T17:08:55.301Z,12.75
2022-12-04T17:12:07.276Z,14.17
2022-12-04T17:15:33.307Z,13.17
2022-12-04T17:18:33.333Z,11.90
2022-12-04T17:21:45.291Z,13.33
2022-12-04T17:24:50.255Z,13.43
2022-12-04T17:27:58.377Z,13.03
2022-12-04T17:31:12.331Z,13.60
2022-12-04T17:34:36.280Z,12.65
2022-12-04T17:37:36.362Z,12.85
2022-12-04T17:40:48.320Z,12.87
2022-12-04T17:44:00.349Z,13.47
2022-12-04T17:47:28.410Z,13.15
2022-12-04T17:50:40.377Z,13.25
2022-12-04T17:54:05.422Z,13.37
2022-12-04T17:57:05.409Z,13.30
2022-12-04T18:00:30.425Z,11.83
2022-12-04T18:03:56.441Z,13.63
2022-12-04T18:07:08.481Z,13.57
2022-12-04T18:10:20.457Z,12.90
2022-12-04T18:13:20.480Z,13.80
2022-12-04T18:16:32.602Z,12.43
2022-12-04T18:20:02.649Z,12.77
2022-12-04T18:23:21.502Z,13.90
2022-12-04T18:26:21.492Z,13.67
2022-12-04T18:29:46.614Z,13.13
2022-12-04T18:32:46.545Z,12.40
2022-12-04T18:36:18.524Z,12.55
2022-12-04T18:39:30.607Z,15.65
2022-12-04T18:42:45.511Z,13.80
2022-12-04T18:45:45.628Z,12.60
2022-12-04T18:49:09.550Z,14.03
2022-12-04T18:52:23.606Z,13.75
2022-12-04T18:55:38.692Z,14.00
2022-12-04T18:58:38.588Z,13.83
2022-12-04T19:01:50.663Z,13.17
2022-12-04T19:04:50.607Z,14.30
2022-12-04T19:08:16.612Z,12.87
2022-12-04T19:11:40.645Z,13.45
2022-12-04T19:14:52.648Z,11.65
2022-12-04T19:17:52.721Z,12.70
2022-12-04T19:21:07.685Z,14.47
2022-12-04T19:24:21.717Z,13.20
2022-12-04T19:27:33.707Z,13.23
2022-12-04T19:30:33.717Z,13.43
2022-12-04T19:33:45.686Z,12.20
2022-12-04T19:36:57.695Z,13.20
2022-12-04T19:40:23.743Z,13.10
2022-12-04T19:43:26.772Z,13.43
2022-12-04T19:46:50.792Z,11.90
2022-12-04T19:49:50.793Z,12.40
2022-12-04T19:53:02.755Z,13.40
2022-12-04T19:56:16.827Z,12.90
2022-12-04T19:59:34.627Z,13.07
2022-12-04T20:02:28.871Z,13.20
2022-12-04T20:05:40.804Z,12.70
2022-12-04T20:08:41.864Z,13.13
2022-12-04T20:12:06.810Z,12.77
2022-12-04T20:15:06.866Z,12.55
2022-12-04T20:18:18.866Z,12.05
2022-12-04T20:21:30.852Z,12.20
2022-12-04T20:24:43.808Z,12.17
2022-12-04T20:27:56.883Z,13.03
2022-12-04T20:31:08.933Z,14.07
2022-12-04T20:34:20.855Z,13.00
2022-12-04T20:37:32.937Z,12.50
2022-12-04T20:40:32.987Z,12.23
2022-12-04T20:43:58.941Z,13.27
2022-12-04T20:47:02.911Z,12.07
2022-12-04T20:50:26.990Z,13.23
2022-12-04T20:53:26.945Z,13.15
2022-12-04T20:56:53.956Z,14.10
2022-12-04T21:00:07.983Z,12.80
2022-12-04T21:03:19.949Z,12.53
2022-12-04T21:06:35.024Z,14.63
2022-12-04T21:09:45.970Z,13.70
2022-12-04T21:13:03.726Z,12.70
2022-12-04T21:16:30.045Z,12.20
2022-12-04T21:19:42.000Z,12.30
2022-12-04T21:23:06.011Z,12.30
2022-12-04T21:26:20.002Z,12.53
2022-12-04T21:29:32.027Z,12.97
2022-12-04T21:32:45.081Z,13.00
2022-12-04T21:36:01.114Z,14.63
2022-12-04T21:39:13.156Z,12.95
2022-12-04T21:42:43.152Z,12.37
2022-12-04T21:45:43.151Z,13.40
2022-12-04T21:49:09.099Z,11.37
2022-12-04T21:52:09.072Z,12.70
2022-12-04T21:55:34.118Z,13.87
2022-12-04T21:58:49.212Z,14.00
2022-12-04T22:02:14.183Z,13.80
2022-12-04T22:05:43.269Z,13.40
2022-12-04T22:08:43.197Z,13.37
2022-12-04T22:12:26.248Z,14.60
2022-12-04T22:15:07.214Z,12.45
2022-12-04T22:18:34.164Z,13.30
2022-12-04T22:21:47.262Z,13.47
2022-12-04T22:25:12.229Z,13.47
2022-12-04T22:28:16.374Z,12.70
2022-12-04T22:31:41.283Z,13.93
2022-12-04T22:34:54.288Z,12.07
2022-12-04T22:38:19.308Z,13.10
2022-12-04T22:41:31.411Z,12.73
2022-12-04T22:44:55.313Z,13.77
2022-12-04T22:47:55.343Z,12.67
2022-12-04T22:51:22.283Z,12.83
2022-12-04T22:54:36.304Z,12.05
2022-12-04T22:57:51.324Z,12.30
2022-12-04T23:01:04.389Z,13.83
2022-12-04T23:04:28.461Z,12.87
2022-12-04T23:07:28.451Z,11.73
2022-12-04T23:10:55.381Z,12.40
2022-12-04T23:14:07.344Z,12.33
2022-12-04T23:17:19.336Z,12.60
2022-12-04T23:20:07.418Z,12.37
2022-12-04T23:23:19.415Z,11.37
2022-12-04T23:26:32.459Z,12.43
2022-12-04T23:29:54.443Z,12.27
2022-12-04T23:32:47.481Z,11.33
2022-12-04T23:36:16.476Z,11.70
2022-12-04T23:39:19.529Z,12.55
2022-12-04T23:42:44.474Z,11.73
2022-12-04T23:45:44.505Z,11.00
2022-12-04T23:49:08.519Z,11.47
2022-12-04T23:52:08.470Z,11.63
2022-12-04T23:55:23.499Z,10.00
2022-12-04T23:58:37.513Z,11.40
